Portada
METAR-TAF:

METAR-TAF

Aeropuertos :

Aeropuerto Internacional de Basora

Basora, Iraq

latitud: 30-32-56N, longitud: 47-39-45E, altitud: 1 m

Observación

El informe se hizo hace 45 minutos, a las 02:00 UTC
Viento 6 kt del oeste-suroeste
Temperatura 27°C
Humedad 48%
Presión 1007 hPa
Visibilidad 10 km o más
sin nubes por debajo de 1500 m y sin presencia de cumulonimbus.

METAR: ORMM 280200Z 25006KT CAVOK 27/15 Q1007 NOSIG

Hora: 05:45 (02:45 UTC)

Pronóstico

El informe se hizo hace 4 horas y 45 minutos, a las 22:00 UTC
Pronóstico válido del 28 a las 00 UTC al 28 a las 24 UTC
Viento 10 kt del noroeste
Visibilidad: 8000 m

TAF: ORMM 272200Z 2800/2824 32010KT 8000 NSC

Observaciones y pronósticos meteorológicos de más de 4000 aeropuertos (mensajes METAR y TAF).

Los puntos amarillos y rojos representan las estaciones disponibles.

Ponga el ratón en el punto deseado para ver el nombre de la estación.

Haga clic para ver las observaciones y los pronósticos meteorológicos.

Para cambiar el mapa : haga clic en los botones verdes con una cruz de color negro para hacer un zoom, en el botón verde con un guión para alejar o en las flechas verdes para mapas adyacentes.


METAR-TAF: